sensor_id;sensor_type;location;lat;lon;timestamp;P1;durP1;ratioP1;P2;durP2;ratioP2
8104;SDS011;4095;48.942;9.104;2023-05-10T00:02:04;0.90;;;0.80;;
8104;SDS011;4095;48.942;9.104;2023-05-10T00:04:29;1.10;;;1.00;;
8104;SDS011;4095;48.942;9.104;2023-05-10T00:06:55;1.27;;;0.70;;
8104;SDS011;4095;48.942;9.104;2023-05-10T00:09:20;2.73;;;0.90;;
8104;SDS011;4095;48.942;9.104;2023-05-10T00:11:46;1.03;;;0.70;;
8104;SDS011;4095;48.942;9.104;2023-05-10T00:14:11;1.83;;;0.93;;
8104;SDS011;4095;48.942;9.104;2023-05-10T00:16:37;2.07;;;0.70;;
8104;SDS011;4095;48.942;9.104;2023-05-10T00:19:03;1.80;;;0.67;;
8104;SDS011;4095;48.942;9.104;2023-05-10T00:21:28;0.40;;;0.40;;
8104;SDS011;4095;48.942;9.104;2023-05-10T00:23:54;0.70;;;0.70;;
8104;SDS011;4095;48.942;9.104;2023-05-10T00:26:20;0.83;;;0.60;;
8104;SDS011;4095;48.942;9.104;2023-05-10T00:28:46;0.77;;;0.60;;
8104;SDS011;4095;48.942;9.104;2023-05-10T00:31:11;1.43;;;0.50;;
8104;SDS011;4095;48.942;9.104;2023-05-10T00:33:37;0.40;;;0.40;;
8104;SDS011;4095;48.942;9.104;2023-05-10T00:36:02;2.40;;;0.60;;
8104;SDS011;4095;48.942;9.104;2023-05-10T00:38:28;1.30;;;0.73;;
8104;SDS011;4095;48.942;9.104;2023-05-10T00:40:54;1.80;;;0.63;;
8104;SDS011;4095;48.942;9.104;2023-05-10T00:43:19;0.73;;;0.63;;
8104;SDS011;4095;48.942;9.104;2023-05-10T00:45:45;1.73;;;0.63;;
8104;SDS011;4095;48.942;9.104;2023-05-10T00:48:11;1.30;;;0.70;;
8104;SDS011;4095;48.942;9.104;2023-05-10T00:50:37;2.00;;;0.90;;
8104;SDS011;4095;48.942;9.104;2023-05-10T00:53:04;1.00;;;0.93;;
8104;SDS011;4095;48.942;9.104;2023-05-10T00:55:30;1.03;;;0.97;;
8104;SDS011;4095;48.942;9.104;2023-05-10T00:57:56;2.03;;;0.90;;
8104;SDS011;4095;48.942;9.104;2023-05-10T01:00:22;0.97;;;0.87;;
8104;SDS011;4095;48.942;9.104;2023-05-10T01:02:47;1.80;;;1.00;;
8104;SDS011;4095;48.942;9.104;2023-05-10T01:05:14;2.40;;;1.20;;
8104;SDS011;4095;48.942;9.104;2023-05-10T01:07:40;1.73;;;0.80;;
8104;SDS011;4095;48.942;9.104;2023-05-10T01:10:06;2.70;;;1.20;;
8104;SDS011;4095;48.942;9.104;2023-05-10T01:12:34;1.73;;;1.10;;
8104;SDS011;4095;48.942;9.104;2023-05-10T01:15:03;1.50;;;1.40;;
8104;SDS011;4095;48.942;9.104;2023-05-10T01:17:30;1.30;;;1.20;;
8104;SDS011;4095;48.942;9.104;2023-05-10T01:19:56;2.53;;;1.50;;
8104;SDS011;4095;48.942;9.104;2023-05-10T01:35:43;1.70;;;1.60;;
8104;SDS011;4095;48.942;9.104;2023-05-10T01:41:18;1.57;;;1.47;;
8104;SDS011;4095;48.942;9.104;2023-05-10T01:44:01;1.70;;;1.60;;
8104;SDS011;4095;48.942;9.104;2023-05-10T01:46:35;2.00;;;1.90;;
8104;SDS011;4095;48.942;9.104;2023-05-10T01:49:02;3.43;;;1.93;;
8104;SDS011;4095;48.942;9.104;2023-05-10T01:51:42;3.10;;;1.90;;
8104;SDS011;4095;48.942;9.104;2023-05-10T01:54:12;1.90;;;1.80;;
8104;SDS011;4095;48.942;9.104;2023-05-10T01:56:40;1.90;;;1.70;;
8104;SDS011;4095;48.942;9.104;2023-05-10T01:59:11;2.03;;;1.93;;
8104;SDS011;4095;48.942;9.104;2023-05-10T02:01:40;2.43;;;1.80;;
8104;SDS011;4095;48.942;9.104;2023-05-10T02:04:07;2.13;;;1.93;;
8104;SDS011;4095;48.942;9.104;2023-05-10T02:06:35;2.10;;;1.57;;
8104;SDS011;4095;48.942;9.104;2023-05-10T02:09:02;3.23;;;1.70;;
8104;SDS011;4095;48.942;9.104;2023-05-10T02:11:29;1.93;;;1.83;;
8104;SDS011;4095;48.942;9.104;2023-05-10T02:13:56;1.70;;;1.60;;
8104;SDS011;4095;48.942;9.104;2023-05-10T02:16:23;3.53;;;1.70;;
8104;SDS011;4095;48.942;9.104;2023-05-10T02:18:51;1.90;;;1.80;;
8104;SDS011;4095;48.942;9.104;2023-05-10T02:21:18;1.80;;;1.70;;
8104;SDS011;4095;48.942;9.104;2023-05-10T02:23:45;1.67;;;1.57;;
8104;SDS011;4095;48.942;9.104;2023-05-10T02:26:13;1.47;;;1.37;;
8104;SDS011;4095;48.942;9.104;2023-05-10T02:28:40;1.80;;;1.70;;
8104;SDS011;4095;48.942;9.104;2023-05-10T02:31:08;4.63;;;1.70;;
8104;SDS011;4095;48.942;9.104;2023-05-10T02:33:35;1.50;;;1.40;;
8104;SDS011;4095;48.942;9.104;2023-05-10T02:36:04;3.03;;;1.53;;
8104;SDS011;4095;48.942;9.104;2023-05-10T02:38:31;1.90;;;1.73;;
8104;SDS011;4095;48.942;9.104;2023-05-10T02:40:58;1.60;;;1.50;;
8104;SDS011;4095;48.942;9.104;2023-05-10T02:43:24;4.10;;;1.60;;
8104;SDS011;4095;48.942;9.104;2023-05-10T02:45:51;1.40;;;1.30;;
8104;SDS011;4095;48.942;9.104;2023-05-10T02:48:16;1.83;;;1.67;;
8104;SDS011;4095;48.942;9.104;2023-05-10T02:50:45;1.60;;;1.50;;
8104;SDS011;4095;48.942;9.104;2023-05-10T02:53:18;1.60;;;1.50;;
8104;SDS011;4095;48.942;9.104;2023-05-10T02:55:51;2.77;;;1.77;;
8104;SDS011;4095;48.942;9.104;2023-05-10T02:58:21;3.40;;;1.80;;
8104;SDS011;4095;48.942;9.104;2023-05-10T03:00:47;4.10;;;2.00;;
8104;SDS011;4095;48.942;9.104;2023-05-10T03:03:13;3.30;;;2.00;;
8104;SDS011;4095;48.942;9.104;2023-05-10T03:05:38;3.47;;;1.90;;
8104;SDS011;4095;48.942;9.104;2023-05-10T03:08:04;3.57;;;2.00;;
8104;SDS011;4095;48.942;9.104;2023-05-10T03:10:31;3.40;;;1.97;;
8104;SDS011;4095;48.942;9.104;2023-05-10T03:18:18;3.87;;;2.43;;
8104;SDS011;4095;48.942;9.104;2023-05-10T03:20:48;2.47;;;2.27;;
8104;SDS011;4095;48.942;9.104;2023-05-10T03:25:48;2.50;;;2.30;;
8104;SDS011;4095;48.942;9.104;2023-05-10T03:28:15;2.60;;;2.40;;
8104;SDS011;4095;48.942;9.104;2023-05-10T03:30:42;3.67;;;2.77;;
8104;SDS011;4095;48.942;9.104;2023-05-10T03:33:09;2.97;;;2.60;;
8104;SDS011;4095;48.942;9.104;2023-05-10T03:35:35;7.37;;;3.00;;
8104;SDS011;4095;48.942;9.104;2023-05-10T03:38:01;2.80;;;2.60;;
8104;SDS011;4095;48.942;9.104;2023-05-10T03:40:27;3.43;;;3.13;;
8104;SDS011;4095;48.942;9.104;2023-05-10T03:42:56;3.60;;;2.90;;
8104;SDS011;4095;48.942;9.104;2023-05-10T03:45:21;3.43;;;3.00;;
8104;SDS011;4095;48.942;9.104;2023-05-10T03:47:47;3.73;;;2.93;;
8104;SDS011;4095;48.942;9.104;2023-05-10T03:50:13;4.43;;;3.37;;
8104;SDS011;4095;48.942;9.104;2023-05-10T03:52:38;4.03;;;3.17;;
8104;SDS011;4095;48.942;9.104;2023-05-10T03:55:04;3.13;;;2.83;;
8104;SDS011;4095;48.942;9.104;2023-05-10T03:57:31;3.47;;;2.70;;
8104;SDS011;4095;48.942;9.104;2023-05-10T03:59:57;3.40;;;3.10;;
8104;SDS011;4095;48.942;9.104;2023-05-10T04:02:22;3.20;;;2.90;;
8104;SDS011;4095;48.942;9.104;2023-05-10T04:04:48;3.47;;;3.20;;
8104;SDS011;4095;48.942;9.104;2023-05-10T04:07:14;3.67;;;3.30;;
8104;SDS011;4095;48.942;9.104;2023-05-10T04:09:40;3.77;;;3.47;;
8104;SDS011;4095;48.942;9.104;2023-05-10T04:12:05;3.60;;;3.30;;
8104;SDS011;4095;48.942;9.104;2023-05-10T04:14:31;4.43;;;3.50;;
8104;SDS011;4095;48.942;9.104;2023-05-10T04:16:57;4.67;;;3.40;;
8104;SDS011;4095;48.942;9.104;2023-05-10T04:19:22;6.73;;;2.80;;
8104;SDS011;4095;48.942;9.104;2023-05-10T04:21:48;4.73;;;3.33;;
8104;SDS011;4095;48.942;9.104;2023-05-10T04:24:14;3.37;;;3.07;;
8104;SDS011;4095;48.942;9.104;2023-05-10T04:26:39;4.67;;;2.93;;
8104;SDS011;4095;48.942;9.104;2023-05-10T04:29:05;3.27;;;2.97;;
8104;SDS011;4095;48.942;9.104;2023-05-10T04:31:31;3.67;;;2.67;;
8104;SDS011;4095;48.942;9.104;2023-05-10T04:33:56;3.30;;;2.70;;
8104;SDS011;4095;48.942;9.104;2023-05-10T04:36:22;3.20;;;2.90;;
8104;SDS011;4095;48.942;9.104;2023-05-10T04:38:47;5.83;;;3.03;;
8104;SDS011;4095;48.942;9.104;2023-05-10T04:41:13;3.37;;;2.47;;
8104;SDS011;4095;48.942;9.104;2023-05-10T04:43:39;3.13;;;2.80;;
8104;SDS011;4095;48.942;9.104;2023-05-10T04:46:04;2.90;;;2.60;;
8104;SDS011;4095;48.942;9.104;2023-05-10T04:48:30;3.03;;;2.53;;
8104;SDS011;4095;48.942;9.104;2023-05-10T04:50:56;4.37;;;2.50;;
8104;SDS011;4095;48.942;9.104;2023-05-10T04:53:22;3.17;;;2.50;;
8104;SDS011;4095;48.942;9.104;2023-05-10T04:55:47;2.67;;;2.43;;
8104;SDS011;4095;48.942;9.104;2023-05-10T04:58:13;3.50;;;2.50;;
8104;SDS011;4095;48.942;9.104;2023-05-10T05:00:39;2.73;;;2.53;;
8104;SDS011;4095;48.942;9.104;2023-05-10T05:03:05;3.00;;;2.70;;
8104;SDS011;4095;48.942;9.104;2023-05-10T05:05:30;3.93;;;2.80;;
8104;SDS011;4095;48.942;9.104;2023-05-10T05:07:56;3.67;;;2.60;;
8104;SDS011;4095;48.942;9.104;2023-05-10T05:10:22;3.47;;;2.67;;
8104;SDS011;4095;48.942;9.104;2023-05-10T05:12:47;4.57;;;3.20;;
8104;SDS011;4095;48.942;9.104;2023-05-10T05:15:13;6.57;;;3.30;;
8104;SDS011;4095;48.942;9.104;2023-05-10T05:17:40;3.40;;;3.10;;
8104;SDS011;4095;48.942;9.104;2023-05-10T05:20:05;4.43;;;3.23;;
8104;SDS011;4095;48.942;9.104;2023-05-10T05:22:32;5.47;;;3.43;;
8104;SDS011;4095;48.942;9.104;2023-05-10T05:24:57;5.00;;;3.10;;
8104;SDS011;4095;48.942;9.104;2023-05-10T05:27:23;4.90;;;2.97;;
8104;SDS011;4095;48.942;9.104;2023-05-10T05:29:54;4.53;;;3.17;;
8104;SDS011;4095;48.942;9.104;2023-05-10T05:32:20;4.90;;;3.43;;
8104;SDS011;4095;48.942;9.104;2023-05-10T05:34:46;4.50;;;3.33;;
8104;SDS011;4095;48.942;9.104;2023-05-10T05:37:12;3.50;;;3.20;;
8104;SDS011;4095;48.942;9.104;2023-05-10T05:39:42;3.73;;;3.37;;
8104;SDS011;4095;48.942;9.104;2023-05-10T05:42:08;3.60;;;3.30;;
8104;SDS011;4095;48.942;9.104;2023-05-10T05:44:34;3.40;;;3.00;;
8104;SDS011;4095;48.942;9.104;2023-05-10T05:47:00;3.70;;;3.40;;
8104;SDS011;4095;48.942;9.104;2023-05-10T05:49:26;3.47;;;3.17;;
8104;SDS011;4095;48.942;9.104;2023-05-10T05:51:51;3.70;;;3.13;;
8104;SDS011;4095;48.942;9.104;2023-05-10T05:54:17;3.57;;;2.87;;
8104;SDS011;4095;48.942;9.104;2023-05-10T05:56:43;4.40;;;3.60;;
8104;SDS011;4095;48.942;9.104;2023-05-10T05:59:09;3.97;;;3.47;;
8104;SDS011;4095;48.942;9.104;2023-05-10T06:01:37;4.03;;;3.50;;
8104;SDS011;4095;48.942;9.104;2023-05-10T06:04:03;4.07;;;3.60;;
8104;SDS011;4095;48.942;9.104;2023-05-10T06:06:28;5.20;;;3.53;;
8104;SDS011;4095;48.942;9.104;2023-05-10T06:08:54;4.53;;;3.53;;
8104;SDS011;4095;48.942;9.104;2023-05-10T06:11:20;4.80;;;3.27;;
8104;SDS011;4095;48.942;9.104;2023-05-10T06:13:48;6.03;;;3.13;;
8104;SDS011;4095;48.942;9.104;2023-05-10T06:16:15;3.27;;;2.97;;
8104;SDS011;4095;48.942;9.104;2023-05-10T06:18:40;3.93;;;3.63;;
8104;SDS011;4095;48.942;9.104;2023-05-10T06:21:06;4.00;;;3.70;;
8104;SDS011;4095;48.942;9.104;2023-05-10T06:23:31;4.93;;;3.37;;
8104;SDS011;4095;48.942;9.104;2023-05-10T06:25:57;5.43;;;3.70;;
8104;SDS011;4095;48.942;9.104;2023-05-10T06:28:23;4.17;;;3.40;;
8104;SDS011;4095;48.942;9.104;2023-05-10T06:30:48;3.43;;;3.07;;
8104;SDS011;4095;48.942;9.104;2023-05-10T06:33:14;7.03;;;3.80;;
8104;SDS011;4095;48.942;9.104;2023-05-10T06:35:41;4.43;;;3.23;;
8104;SDS011;4095;48.942;9.104;2023-05-10T06:38:06;4.00;;;3.60;;
8104;SDS011;4095;48.942;9.104;2023-05-10T06:40:32;5.03;;;4.20;;
8104;SDS011;4095;48.942;9.104;2023-05-10T06:42:58;4.60;;;3.20;;
8104;SDS011;4095;48.942;9.104;2023-05-10T06:45:23;3.83;;;3.40;;
8104;SDS011;4095;48.942;9.104;2023-05-10T06:47:49;4.00;;;3.00;;
8104;SDS011;4095;48.942;9.104;2023-05-10T06:50:15;5.37;;;3.10;;
8104;SDS011;4095;48.942;9.104;2023-05-10T06:52:40;3.37;;;2.50;;
8104;SDS011;4095;48.942;9.104;2023-05-10T06:55:06;5.50;;;2.50;;
8104;SDS011;4095;48.942;9.104;2023-05-10T06:57:33;4.87;;;2.60;;
8104;SDS011;4095;48.942;9.104;2023-05-10T06:59:58;3.60;;;2.30;;
8104;SDS011;4095;48.942;9.104;2023-05-10T07:02:24;4.73;;;2.50;;
8104;SDS011;4095;48.942;9.104;2023-05-10T07:04:50;3.50;;;2.27;;
8104;SDS011;4095;48.942;9.104;2023-05-10T07:07:16;3.77;;;2.30;;
8104;SDS011;4095;48.942;9.104;2023-05-10T07:09:42;2.93;;;1.90;;
8104;SDS011;4095;48.942;9.104;2023-05-10T07:12:08;2.80;;;1.90;;
8104;SDS011;4095;48.942;9.104;2023-05-10T07:14:33;3.37;;;1.93;;
8104;SDS011;4095;48.942;9.104;2023-05-10T07:16:59;3.57;;;1.73;;
8104;SDS011;4095;48.942;9.104;2023-05-10T07:19:24;1.77;;;1.63;;
8104;SDS011;4095;48.942;9.104;2023-05-10T07:21:50;2.27;;;1.60;;
8104;SDS011;4095;48.942;9.104;2023-05-10T07:24:16;1.97;;;1.50;;
8104;SDS011;4095;48.942;9.104;2023-05-10T07:26:41;2.03;;;1.40;;
8104;SDS011;4095;48.942;9.104;2023-05-10T07:29:07;3.03;;;1.53;;
8104;SDS011;4095;48.942;9.104;2023-05-10T07:31:32;4.23;;;1.57;;
8104;SDS011;4095;48.942;9.104;2023-05-10T07:33:58;1.77;;;1.50;;
8104;SDS011;4095;48.942;9.104;2023-05-10T07:36:24;1.87;;;1.33;;
8104;SDS011;4095;48.942;9.104;2023-05-10T07:38:49;2.67;;;1.53;;
8104;SDS011;4095;48.942;9.104;2023-05-10T07:41:15;1.40;;;1.30;;
8104;SDS011;4095;48.942;9.104;2023-05-10T07:43:40;3.30;;;1.50;;
8104;SDS011;4095;48.942;9.104;2023-05-10T07:46:06;1.80;;;1.33;;
8104;SDS011;4095;48.942;9.104;2023-05-10T07:48:32;1.27;;;1.10;;
8104;SDS011;4095;48.942;9.104;2023-05-10T07:50:58;4.17;;;1.30;;
8104;SDS011;4095;48.942;9.104;2023-05-10T07:53:24;2.10;;;1.17;;
8104;SDS011;4095;48.942;9.104;2023-05-10T07:55:51;1.40;;;1.27;;
8104;SDS011;4095;48.942;9.104;2023-05-10T07:58:21;3.50;;;1.30;;
8104;SDS011;4095;48.942;9.104;2023-05-10T08:00:47;2.07;;;0.77;;
8104;SDS011;4095;48.942;9.104;2023-05-10T08:03:14;1.03;;;0.97;;
8104;SDS011;4095;48.942;9.104;2023-05-10T08:05:39;1.30;;;1.20;;
8104;SDS011;4095;48.942;9.104;2023-05-10T08:08:05;1.70;;;1.30;;
8104;SDS011;4095;48.942;9.104;2023-05-10T08:10:31;2.37;;;0.97;;
8104;SDS011;4095;48.942;9.104;2023-05-10T08:12:57;2.50;;;1.40;;
8104;SDS011;4095;48.942;9.104;2023-05-10T08:15:23;1.07;;;0.87;;
8104;SDS011;4095;48.942;9.104;2023-05-10T08:17:50;3.17;;;1.00;;
8104;SDS011;4095;48.942;9.104;2023-05-10T08:20:16;1.23;;;0.87;;
8104;SDS011;4095;48.942;9.104;2023-05-10T08:22:44;1.03;;;0.90;;
8104;SDS011;4095;48.942;9.104;2023-05-10T08:25:10;0.80;;;0.70;;
8104;SDS011;4095;48.942;9.104;2023-05-10T08:27:35;1.57;;;0.80;;
8104;SDS011;4095;48.942;9.104;2023-05-10T08:30:01;1.10;;;0.83;;
8104;SDS011;4095;48.942;9.104;2023-05-10T08:32:26;0.97;;;0.73;;
8104;SDS011;4095;48.942;9.104;2023-05-10T08:34:52;0.80;;;0.80;;
8104;SDS011;4095;48.942;9.104;2023-05-10T08:37:18;1.00;;;0.90;;
8104;SDS011;4095;48.942;9.104;2023-05-10T08:39:43;1.33;;;0.80;;
8104;SDS011;4095;48.942;9.104;2023-05-10T08:42:10;1.87;;;0.90;;
8104;SDS011;4095;48.942;9.104;2023-05-10T08:44:37;1.37;;;0.70;;
8104;SDS011;4095;48.942;9.104;2023-05-10T08:47:04;0.80;;;0.70;;
8104;SDS011;4095;48.942;9.104;2023-05-10T08:49:33;2.37;;;0.97;;
8104;SDS011;4095;48.942;9.104;2023-05-10T08:51:59;1.20;;;0.77;;
8104;SDS011;4095;48.942;9.104;2023-05-10T08:54:29;1.40;;;0.70;;
8104;SDS011;4095;48.942;9.104;2023-05-10T08:56:56;1.90;;;0.83;;
8104;SDS011;4095;48.942;9.104;2023-05-10T08:59:22;1.70;;;0.60;;
8104;SDS011;4095;48.942;9.104;2023-05-10T09:01:47;1.57;;;1.00;;
8104;SDS011;4095;48.942;9.104;2023-05-10T09:04:15;1.57;;;0.70;;
8104;SDS011;4095;48.942;9.104;2023-05-10T09:06:41;4.23;;;0.83;;
8104;SDS011;4095;48.942;9.104;2023-05-10T09:09:06;2.00;;;0.70;;
8104;SDS011;4095;48.942;9.104;2023-05-10T09:11:32;3.30;;;0.90;;
8104;SDS011;4095;48.942;9.104;2023-05-10T09:13:58;0.53;;;0.53;;
8104;SDS011;4095;48.942;9.104;2023-05-10T09:16:23;1.00;;;0.80;;
8104;SDS011;4095;48.942;9.104;2023-05-10T09:18:49;1.30;;;1.00;;
8104;SDS011;4095;48.942;9.104;2023-05-10T09:21:15;0.43;;;0.43;;
8104;SDS011;4095;48.942;9.104;2023-05-10T09:23:47;1.00;;;0.60;;
8104;SDS011;4095;48.942;9.104;2023-05-10T09:26:14;1.73;;;0.80;;
8104;SDS011;4095;48.942;9.104;2023-05-10T09:28:50;2.23;;;0.70;;
8104;SDS011;4095;48.942;9.104;2023-05-10T09:31:17;1.13;;;1.00;;
8104;SDS011;4095;48.942;9.104;2023-05-10T09:33:47;1.53;;;1.00;;
8104;SDS011;4095;48.942;9.104;2023-05-10T09:36:13;0.77;;;0.70;;
8104;SDS011;4095;48.942;9.104;2023-05-10T09:41:21;1.33;;;0.60;;
8104;SDS011;4095;48.942;9.104;2023-05-10T09:43:47;0.57;;;0.57;;
8104;SDS011;4095;48.942;9.104;2023-05-10T09:46:14;1.00;;;0.70;;
8104;SDS011;4095;48.942;9.104;2023-05-10T09:48:44;1.70;;;0.80;;
8104;SDS011;4095;48.942;9.104;2023-05-10T09:51:21;2.43;;;0.70;;
8104;SDS011;4095;48.942;9.104;2023-05-10T09:53:47;0.70;;;0.70;;
8104;SDS011;4095;48.942;9.104;2023-05-10T09:56:32;0.67;;;0.60;;
8104;SDS011;4095;48.942;9.104;2023-05-10T09:59:03;0.77;;;0.50;;
8104;SDS011;4095;48.942;9.104;2023-05-10T10:01:29;1.27;;;0.70;;
8104;SDS011;4095;48.942;9.104;2023-05-10T10:03:55;1.23;;;0.70;;
8104;SDS011;4095;48.942;9.104;2023-05-10T10:06:22;1.97;;;0.87;;
8104;SDS011;4095;48.942;9.104;2023-05-10T10:08:48;1.00;;;0.70;;
8104;SDS011;4095;48.942;9.104;2023-05-10T10:11:15;1.73;;;0.90;;
8104;SDS011;4095;48.942;9.104;2023-05-10T10:13:41;2.00;;;0.83;;
8104;SDS011;4095;48.942;9.104;2023-05-10T10:16:07;0.60;;;0.60;;
8104;SDS011;4095;48.942;9.104;2023-05-10T10:18:34;0.50;;;0.40;;
8104;SDS011;4095;48.942;9.104;2023-05-10T10:21:03;1.03;;;0.50;;
8104;SDS011;4095;48.942;9.104;2023-05-10T10:23:34;1.70;;;0.50;;
8104;SDS011;4095;48.942;9.104;2023-05-10T10:26:00;1.17;;;0.60;;
8104;SDS011;4095;48.942;9.104;2023-05-10T10:30:56;2.23;;;0.90;;
8104;SDS011;4095;48.942;9.104;2023-05-10T10:33:33;1.53;;;0.60;;
8104;SDS011;4095;48.942;9.104;2023-05-10T10:36:24;0.80;;;0.80;;
8104;SDS011;4095;48.942;9.104;2023-05-10T10:41:28;2.00;;;0.90;;
8104;SDS011;4095;48.942;9.104;2023-05-10T10:57:53;0.93;;;0.63;;
8104;SDS011;4095;48.942;9.104;2023-05-10T11:00:31;1.10;;;0.60;;
8104;SDS011;4095;48.942;9.104;2023-05-10T11:08:02;1.57;;;0.80;;
8104;SDS011;4095;48.942;9.104;2023-05-10T11:10:32;3.87;;;1.10;;
8104;SDS011;4095;48.942;9.104;2023-05-10T11:13:05;1.13;;;0.70;;
8104;SDS011;4095;48.942;9.104;2023-05-10T11:15:39;0.67;;;0.67;;
8104;SDS011;4095;48.942;9.104;2023-05-10T11:18:23;2.50;;;0.90;;
8104;SDS011;4095;48.942;9.104;2023-05-10T11:20:51;2.50;;;0.90;;
8104;SDS011;4095;48.942;9.104;2023-05-10T11:23:17;2.63;;;1.00;;
8104;SDS011;4095;48.942;9.104;2023-05-10T11:25:45;1.23;;;0.90;;
8104;SDS011;4095;48.942;9.104;2023-05-10T11:28:11;2.73;;;0.90;;
8104;SDS011;4095;48.942;9.104;2023-05-10T11:30:38;2.47;;;1.20;;
8104;SDS011;4095;48.942;9.104;2023-05-10T11:33:05;2.17;;;1.00;;
8104;SDS011;4095;48.942;9.104;2023-05-10T11:35:36;0.87;;;0.80;;
8104;SDS011;4095;48.942;9.104;2023-05-10T11:38:05;1.70;;;0.80;;
8104;SDS011;4095;48.942;9.104;2023-05-10T11:40:31;1.80;;;1.00;;
8104;SDS011;4095;48.942;9.104;2023-05-10T11:42:57;1.53;;;1.20;;
8104;SDS011;4095;48.942;9.104;2023-05-10T11:45:25;2.33;;;1.30;;
8104;SDS011;4095;48.942;9.104;2023-05-10T11:47:52;1.77;;;1.13;;
8104;SDS011;4095;48.942;9.104;2023-05-10T11:50:18;2.63;;;1.27;;
8104;SDS011;4095;48.942;9.104;2023-05-10T11:52:43;2.33;;;1.20;;
8104;SDS011;4095;48.942;9.104;2023-05-10T11:55:09;3.93;;;1.33;;
8104;SDS011;4095;48.942;9.104;2023-05-10T11:57:35;4.87;;;1.40;;
8104;SDS011;4095;48.942;9.104;2023-05-10T12:00:03;2.83;;;1.33;;
8104;SDS011;4095;48.942;9.104;2023-05-10T12:02:29;2.30;;;1.33;;
8104;SDS011;4095;48.942;9.104;2023-05-10T12:04:55;4.27;;;1.40;;
8104;SDS011;4095;48.942;9.104;2023-05-10T12:07:21;2.20;;;1.27;;
8104;SDS011;4095;48.942;9.104;2023-05-10T12:10:03;2.03;;;1.20;;
8104;SDS011;4095;48.942;9.104;2023-05-10T12:12:40;4.70;;;1.60;;
8104;SDS011;4095;48.942;9.104;2023-05-10T12:15:10;1.93;;;1.70;;
8104;SDS011;4095;48.942;9.104;2023-05-10T12:17:42;2.40;;;1.30;;
8104;SDS011;4095;48.942;9.104;2023-05-10T12:20:12;2.93;;;1.10;;
8104;SDS011;4095;48.942;9.104;2023-05-10T12:22:40;1.90;;;1.30;;
8104;SDS011;4095;48.942;9.104;2023-05-10T12:25:06;1.70;;;1.40;;
8104;SDS011;4095;48.942;9.104;2023-05-10T12:27:33;1.57;;;1.20;;
8104;SDS011;4095;48.942;9.104;2023-05-10T12:29:59;1.97;;;1.03;;
8104;SDS011;4095;48.942;9.104;2023-05-10T12:35:29;3.57;;;1.20;;
8104;SDS011;4095;48.942;9.104;2023-05-10T12:37:56;1.70;;;1.07;;
8104;SDS011;4095;48.942;9.104;2023-05-10T12:40:21;2.70;;;0.90;;
8104;SDS011;4095;48.942;9.104;2023-05-10T12:42:47;3.30;;;1.10;;
8104;SDS011;4095;48.942;9.104;2023-05-10T12:45:13;1.67;;;0.90;;
8104;SDS011;4095;48.942;9.104;2023-05-10T12:47:39;1.00;;;0.60;;
8104;SDS011;4095;48.942;9.104;2023-05-10T12:50:05;2.10;;;0.70;;
8104;SDS011;4095;48.942;9.104;2023-05-10T12:52:31;2.70;;;0.87;;
8104;SDS011;4095;48.942;9.104;2023-05-10T12:54:57;1.60;;;0.63;;
8104;SDS011;4095;48.942;9.104;2023-05-10T12:57:24;1.57;;;0.80;;
8104;SDS011;4095;48.942;9.104;2023-05-10T12:59:50;1.83;;;0.73;;
8104;SDS011;4095;48.942;9.104;2023-05-10T13:02:16;1.90;;;0.87;;
8104;SDS011;4095;48.942;9.104;2023-05-10T13:04:43;1.37;;;0.80;;
8104;SDS011;4095;48.942;9.104;2023-05-10T13:07:09;2.27;;;0.87;;
8104;SDS011;4095;48.942;9.104;2023-05-10T13:09:35;1.70;;;0.80;;
8104;SDS011;4095;48.942;9.104;2023-05-10T13:12:01;1.20;;;1.00;;
8104;SDS011;4095;48.942;9.104;2023-05-10T13:14:27;1.20;;;0.60;;
8104;SDS011;4095;48.942;9.104;2023-05-10T13:16:52;0.73;;;0.67;;
8104;SDS011;4095;48.942;9.104;2023-05-10T13:19:18;1.10;;;0.80;;
8104;SDS011;4095;48.942;9.104;2023-05-10T13:21:44;2.33;;;0.90;;
8104;SDS011;4095;48.942;9.104;2023-05-10T13:24:10;1.60;;;0.60;;
8104;SDS011;4095;48.942;9.104;2023-05-10T13:26:38;2.33;;;0.90;;
8104;SDS011;4095;48.942;9.104;2023-05-10T13:29:05;2.70;;;1.07;;
8104;SDS011;4095;48.942;9.104;2023-05-10T13:31:30;3.70;;;0.90;;
8104;SDS011;4095;48.942;9.104;2023-05-10T13:33:56;1.87;;;1.10;;
8104;SDS011;4095;48.942;9.104;2023-05-10T13:36:21;0.60;;;0.60;;
8104;SDS011;4095;48.942;9.104;2023-05-10T13:38:47;2.43;;;1.13;;
8104;SDS011;4095;48.942;9.104;2023-05-10T13:41:13;1.93;;;0.87;;
8104;SDS011;4095;48.942;9.104;2023-05-10T13:43:39;3.00;;;1.17;;
8104;SDS011;4095;48.942;9.104;2023-05-10T13:46:05;1.40;;;1.00;;
8104;SDS011;4095;48.942;9.104;2023-05-10T13:48:30;2.40;;;1.20;;
8104;SDS011;4095;48.942;9.104;2023-05-10T13:50:56;3.90;;;1.37;;
8104;SDS011;4095;48.942;9.104;2023-05-10T13:53:22;1.80;;;0.83;;
8104;SDS011;4095;48.942;9.104;2023-05-10T13:55:47;3.27;;;1.03;;
8104;SDS011;4095;48.942;9.104;2023-05-10T13:58:13;4.97;;;1.10;;
8104;SDS011;4095;48.942;9.104;2023-05-10T14:00:39;1.03;;;0.90;;
8104;SDS011;4095;48.942;9.104;2023-05-10T14:03:04;1.60;;;0.90;;
8104;SDS011;4095;48.942;9.104;2023-05-10T14:05:31;2.87;;;0.80;;
8104;SDS011;4095;48.942;9.104;2023-05-10T14:07:56;2.50;;;1.10;;
8104;SDS011;4095;48.942;9.104;2023-05-10T14:10:22;1.40;;;0.73;;
8104;SDS011;4095;48.942;9.104;2023-05-10T14:12:48;5.20;;;0.80;;
8104;SDS011;4095;48.942;9.104;2023-05-10T14:15:14;2.60;;;0.93;;
8104;SDS011;4095;48.942;9.104;2023-05-10T14:17:39;1.77;;;0.80;;
8104;SDS011;4095;48.942;9.104;2023-05-10T14:20:05;1.80;;;0.67;;
8104;SDS011;4095;48.942;9.104;2023-05-10T14:22:31;1.53;;;1.10;;
8104;SDS011;4095;48.942;9.104;2023-05-10T14:24:57;2.37;;;0.60;;
8104;SDS011;4095;48.942;9.104;2023-05-10T14:27:23;3.07;;;1.00;;
8104;SDS011;4095;48.942;9.104;2023-05-10T14:29:49;3.60;;;1.10;;
8104;SDS011;4095;48.942;9.104;2023-05-10T14:32:15;2.93;;;1.10;;
8104;SDS011;4095;48.942;9.104;2023-05-10T14:34:40;2.20;;;1.53;;
8104;SDS011;4095;48.942;9.104;2023-05-10T14:37:06;3.83;;;1.50;;
8104;SDS011;4095;48.942;9.104;2023-05-10T14:39:31;1.87;;;1.20;;
8104;SDS011;4095;48.942;9.104;2023-05-10T14:41:58;4.03;;;1.00;;
8104;SDS011;4095;48.942;9.104;2023-05-10T14:44:23;4.00;;;1.00;;
8104;SDS011;4095;48.942;9.104;2023-05-10T14:46:50;2.10;;;1.20;;
8104;SDS011;4095;48.942;9.104;2023-05-10T14:49:16;2.40;;;0.90;;
8104;SDS011;4095;48.942;9.104;2023-05-10T14:51:42;2.07;;;0.70;;
8104;SDS011;4095;48.942;9.104;2023-05-10T14:54:07;1.33;;;0.97;;
8104;SDS011;4095;48.942;9.104;2023-05-10T14:56:33;1.00;;;0.70;;
8104;SDS011;4095;48.942;9.104;2023-05-10T14:58:58;1.10;;;0.70;;
8104;SDS011;4095;48.942;9.104;2023-05-10T15:01:25;2.20;;;1.10;;
8104;SDS011;4095;48.942;9.104;2023-05-10T15:03:50;2.63;;;0.97;;
8104;SDS011;4095;48.942;9.104;2023-05-10T15:06:16;2.30;;;1.03;;
8104;SDS011;4095;48.942;9.104;2023-05-10T15:08:42;2.23;;;1.30;;
8104;SDS011;4095;48.942;9.104;2023-05-10T15:11:08;2.47;;;0.70;;
8104;SDS011;4095;48.942;9.104;2023-05-10T15:13:34;1.97;;;0.90;;
8104;SDS011;4095;48.942;9.104;2023-05-10T15:15:59;1.37;;;0.70;;
8104;SDS011;4095;48.942;9.104;2023-05-10T15:18:25;1.43;;;0.83;;
8104;SDS011;4095;48.942;9.104;2023-05-10T15:20:51;2.33;;;0.90;;
8104;SDS011;4095;48.942;9.104;2023-05-10T15:23:16;1.00;;;0.70;;
8104;SDS011;4095;48.942;9.104;2023-05-10T15:25:42;2.20;;;1.50;;
8104;SDS011;4095;48.942;9.104;2023-05-10T15:28:08;2.67;;;2.20;;
8104;SDS011;4095;48.942;9.104;2023-05-10T15:30:33;7.97;;;5.10;;
8104;SDS011;4095;48.942;9.104;2023-05-10T15:32:59;3.27;;;2.47;;
8104;SDS011;4095;48.942;9.104;2023-05-10T15:35:25;3.50;;;1.83;;
8104;SDS011;4095;48.942;9.104;2023-05-10T15:37:51;4.33;;;3.00;;
8104;SDS011;4095;48.942;9.104;2023-05-10T15:40:17;2.27;;;1.40;;
8104;SDS011;4095;48.942;9.104;2023-05-10T15:42:43;0.90;;;0.80;;
8104;SDS011;4095;48.942;9.104;2023-05-10T15:45:09;1.47;;;1.00;;
8104;SDS011;4095;48.942;9.104;2023-05-10T15:47:35;1.83;;;1.00;;
8104;SDS011;4095;48.942;9.104;2023-05-10T15:50:01;1.30;;;1.00;;
8104;SDS011;4095;48.942;9.104;2023-05-10T15:52:27;1.83;;;1.00;;
8104;SDS011;4095;48.942;9.104;2023-05-10T15:54:53;1.30;;;0.87;;
8104;SDS011;4095;48.942;9.104;2023-05-10T15:57:18;0.97;;;0.60;;
8104;SDS011;4095;48.942;9.104;2023-05-10T15:59:44;1.43;;;0.80;;
8104;SDS011;4095;48.942;9.104;2023-05-10T16:02:10;4.33;;;0.97;;
8104;SDS011;4095;48.942;9.104;2023-05-10T16:04:36;1.77;;;0.90;;
8104;SDS011;4095;48.942;9.104;2023-05-10T16:07:01;0.93;;;0.70;;